Time;durP1;ratioP1;P1;durP2;ratioP2;P2;SDS_P1;SDS_P2;PMS_P1;PMS_P2;Temp;Humidity;BMP_temperature;BMP_pressure;BME280_temperature;BME280_humidity;BME280_pressure;Samples;Min_cycle;Max_cycle;Signal;HPM_P1;HPM_P2
2022/12/28 00:00:49;;;;;;;13.57;4.33;;;;;;;;;;5032854;28;20834;-79
2022/12/28 00:03:15;;;;;;;5.73;3.23;;;;;;;;;;5030861;28;20476;-79
2022/12/28 00:05:41;;;;;;;7.10;3.53;;;;;;;;;;5034687;28;20555;-79
2022/12/28 00:08:08;;;;;;;7.70;3.47;;;;;;;;;;5036011;28;20464;-79
2022/12/28 00:10:34;;;;;;;8.00;3.73;;;;;;;;;;5028423;28;20465;-79
2022/12/28 00:13:00;;;;;;;11.83;4.00;;;;;;;;;;5038174;28;20449;-79
2022/12/28 00:15:27;;;;;;;5.70;3.10;;;;;;;;;;5031276;28;20479;-79
2022/12/28 00:17:56;;;;;;;5.60;2.90;;;;;;;;;;5034398;28;20473;-79
2022/12/28 00:20:23;;;;;;;5.50;3.30;;;;;;;;;;5038804;28;20503;-79
2022/12/28 00:22:49;;;;;;;4.90;3.00;;;;;;;;;;5033336;28;20484;-79
2022/12/28 00:25:15;;;;;;;6.70;3.20;;;;;;;;;;5036318;28;20481;-79
2022/12/28 00:27:42;;;;;;;7.33;3.37;;;;;;;;;;5039923;28;20469;-79
2022/12/28 00:30:09;;;;;;;5.40;2.73;;;;;;;;;;5036250;28;20468;-79
2022/12/28 00:32:36;;;;;;;6.27;2.40;;;;;;;;;;5032646;28;20453;-79
2022/12/28 00:35:04;;;;;;;3.23;2.10;;;;;;;;;;5032710;28;20479;-79
2022/12/28 00:37:31;;;;;;;5.90;2.37;;;;;;;;;;5030005;28;20470;-79
2022/12/28 00:39:58;;;;;;;7.23;3.63;;;;;;;;;;5035760;28;20504;-79
2022/12/28 00:42:24;;;;;;;6.37;3.10;;;;;;;;;;5030089;28;20503;-79
2022/12/28 00:44:51;;;;;;;4.73;2.50;;;;;;;;;;5037683;28;20480;-79
2022/12/28 00:47:18;;;;;;;4.27;2.90;;;;;;;;;;5032818;28;20464;-79
2022/12/28 00:49:45;;;;;;;5.87;3.00;;;;;;;;;;5031132;28;20472;-79
2022/12/28 00:52:12;;;;;;;9.53;2.60;;;;;;;;;;5033453;28;20469;-79
2022/12/28 00:54:39;;;;;;;6.27;2.90;;;;;;;;;;5034055;28;20457;-79
2022/12/28 00:57:05;;;;;;;7.77;3.03;;;;;;;;;;5031694;28;20490;-79
2022/12/28 00:59:31;;;;;;;4.83;3.00;;;;;;;;;;5037479;28;20489;-79
2022/12/28 01:01:58;;;;;;;10.00;3.47;;;;;;;;;;5033919;28;20464;-79
2022/12/28 01:04:24;;;;;;;7.53;2.70;;;;;;;;;;5036362;28;21001;-79
2022/12/28 01:06:50;;;;;;;10.73;2.27;;;;;;;;;;5036130;28;20458;-79
2022/12/28 01:09:18;;;;;;;5.40;3.17;;;;;;;;;;5034308;28;20545;-79
2022/12/28 01:11:44;;;;;;;12.43;3.10;;;;;;;;;;5039877;28;20455;-79
2022/12/28 01:14:11;;;;;;;4.77;3.03;;;;;;;;;;5031908;28;21037;-79
2022/12/28 01:16:37;;;;;;;5.07;2.60;;;;;;;;;;5034848;28;20459;-79
2022/12/28 01:19:06;;;;;;;7.67;3.33;;;;;;;;;;5033024;28;20480;-79
2022/12/28 01:21:33;;;;;;;10.53;3.40;;;;;;;;;;5029878;28;20504;-79
2022/12/28 01:24:02;;;;;;;5.47;3.30;;;;;;;;;;5033881;28;20476;-79
2022/12/28 01:26:30;;;;;;;6.67;2.77;;;;;;;;;;5034279;28;20445;-79
2022/12/28 01:28:57;;;;;;;9.17;3.07;;;;;;;;;;5040493;28;20484;-79
2022/12/28 01:31:24;;;;;;;12.70;2.87;;;;;;;;;;5041403;28;20453;-79
2022/12/28 01:33:50;;;;;;;3.63;2.50;;;;;;;;;;5032390;28;20477;-79
2022/12/28 01:36:17;;;;;;;7.40;3.77;;;;;;;;;;5032950;28;20461;-79
2022/12/28 01:38:46;;;;;;;11.13;4.47;;;;;;;;;;5031359;28;20481;-79
2022/12/28 01:41:13;;;;;;;8.93;4.47;;;;;;;;;;5027447;28;20450;-79
2022/12/28 01:43:42;;;;;;;6.60;2.60;;;;;;;;;;5033478;28;20477;-79
2022/12/28 01:46:09;;;;;;;5.13;2.87;;;;;;;;;;5032735;28;20816;-79
2022/12/28 01:48:37;;;;;;;5.30;3.80;;;;;;;;;;5031658;28;20480;-79
2022/12/28 01:51:04;;;;;;;9.80;3.37;;;;;;;;;;5034411;28;20445;-79
2022/12/28 01:53:31;;;;;;;10.00;4.70;;;;;;;;;;5031631;28;20462;-79
2022/12/28 01:55:57;;;;;;;5.90;3.13;;;;;;;;;;5034296;28;20449;-79
2022/12/28 01:58:25;;;;;;;5.67;2.80;;;;;;;;;;5030099;28;20469;-79
2022/12/28 02:00:53;;;;;;;5.80;3.10;;;;;;;;;;5025270;28;20477;-79
2022/12/28 02:03:21;;;;;;;8.07;3.43;;;;;;;;;;5030600;28;20495;-79
2022/12/28 02:05:49;;;;;;;9.60;3.93;;;;;;;;;;5029775;28;20947;-79
2022/12/28 02:08:18;;;;;;;7.60;4.03;;;;;;;;;;5031755;28;20485;-79
2022/12/28 02:10:45;;;;;;;6.80;3.60;;;;;;;;;;5030213;28;20484;-79
2022/12/28 02:13:13;;;;;;;4.80;3.77;;;;;;;;;;5030012;28;20837;-79
2022/12/28 02:15:39;;;;;;;4.60;4.13;;;;;;;;;;5032255;28;20477;-79
2022/12/28 02:18:07;;;;;;;5.20;3.27;;;;;;;;;;5033060;28;20476;-78
2022/12/28 02:20:39;;;;;;;9.73;3.30;;;;;;;;;;5026012;28;20476;-79
2022/12/28 02:23:30;;;;;;;8.90;3.30;;;;;;;;;;5025140;28;20972;-79
2022/12/28 02:26:13;;;;;;;6.07;4.07;;;;;;;;;;5018792;28;21001;-78
2022/12/28 02:28:55;;;;;;;7.00;4.07;;;;;;;;;;5026893;28;20461;-79
2022/12/28 02:31:24;;;;;;;6.17;3.80;;;;;;;;;;5022451;28;20839;-79
2022/12/28 02:33:56;;;;;;;5.90;4.07;;;;;;;;;;5025753;28;20472;-79
2022/12/28 02:36:24;;;;;;;11.50;4.23;;;;;;;;;;5025008;28;20472;-78
2022/12/28 02:38:54;;;;;;;6.97;4.13;;;;;;;;;;5029020;28;20480;-79
2022/12/28 02:41:21;;;;;;;8.70;4.37;;;;;;;;;;5026866;28;21000;-78
2022/12/28 02:43:48;;;;;;;8.67;4.60;;;;;;;;;;5026083;28;20473;-79
2022/12/28 02:52:07;;;;;;;5.73;4.20;;;;;;;;;;5022258;28;20451;-78
2022/12/28 02:57:35;;;;;;;7.47;4.33;;;;;;;;;;5024828;28;20476;-79
2022/12/28 03:00:05;;;;;;;8.53;5.80;;;;;;;;;;5022616;28;20523;-78
2022/12/28 03:02:46;;;;;;;6.43;4.20;;;;;;;;;;5028255;28;20465;-78
2022/12/28 03:08:13;;;;;;;16.47;4.97;;;;;;;;;;5026591;28;20557;-78
2022/12/28 03:08:19;;;;;;;7.23;4.60;;;;;;;;;;5024261;28;20477;-78
2022/12/28 03:10:47;;;;;;;5.70;4.10;;;;;;;;;;5023072;28;20469;-78
2022/12/28 03:15:59;;;;;;;10.73;5.10;;;;;;;;;;5022834;28;20863;-78
2022/12/28 03:32:11;;;;;;;7.93;4.57;;;;;;;;;;5028683;28;20471;-78
2022/12/28 03:34:38;;;;;;;7.73;4.67;;;;;;;;;;5022383;28;20857;-78
2022/12/28 03:37:10;;;;;;;6.33;4.43;;;;;;;;;;5027519;28;20449;-78
2022/12/28 03:39:39;;;;;;;6.63;4.40;;;;;;;;;;5025911;28;20472;-78
2022/12/28 03:44:56;;;;;;;7.50;4.77;;;;;;;;;;5027555;28;20550;-79
2022/12/28 03:47:24;;;;;;;10.63;4.20;;;;;;;;;;5026048;28;20480;-78
2022/12/28 03:49:51;;;;;;;13.90;4.90;;;;;;;;;;5032529;28;20467;-78
2022/12/28 03:52:19;;;;;;;9.90;4.70;;;;;;;;;;5029954;28;20468;-78
2022/12/28 03:54:45;;;;;;;9.50;5.10;;;;;;;;;;5023050;28;20866;-79
2022/12/28 03:57:11;;;;;;;9.43;4.63;;;;;;;;;;5023041;28;20472;-78
2022/12/28 03:59:38;;;;;;;4.73;4.10;;;;;;;;;;5023739;28;20484;-78
2022/12/28 04:02:04;;;;;;;8.13;3.87;;;;;;;;;;5031386;28;20466;-78
2022/12/28 04:04:32;;;;;;;11.77;5.73;;;;;;;;;;5030068;28;20472;-79
2022/12/28 04:06:59;;;;;;;8.77;5.57;;;;;;;;;;5028836;28;20451;-78
2022/12/28 04:09:27;;;;;;;7.53;5.20;;;;;;;;;;5028937;28;20472;-78
2022/12/28 04:11:55;;;;;;;12.87;4.80;;;;;;;;;;5027307;28;20448;-78
2022/12/28 04:14:21;;;;;;;7.60;5.50;;;;;;;;;;5030459;28;20472;-78
2022/12/28 04:16:47;;;;;;;7.73;5.97;;;;;;;;;;5021787;28;20456;-79
2022/12/28 04:19:14;;;;;;;9.33;6.00;;;;;;;;;;5021865;28;20483;-79
2022/12/28 04:21:40;;;;;;;8.80;6.07;;;;;;;;;;5027603;28;20464;-78
2022/12/28 04:24:08;;;;;;;15.53;7.17;;;;;;;;;;5030432;28;20472;-78
2022/12/28 04:26:36;;;;;;;14.00;7.00;;;;;;;;;;5029262;28;20449;-78
2022/12/28 04:29:02;;;;;;;8.17;6.53;;;;;;;;;;5025108;28;20480;-78
2022/12/28 04:31:29;;;;;;;15.03;7.37;;;;;;;;;;5029765;28;20449;-78
2022/12/28 04:33:56;;;;;;;16.10;7.60;;;;;;;;;;5020616;28;20481;-78
2022/12/28 04:36:23;;;;;;;11.57;7.43;;;;;;;;;;5029542;28;20452;-78
2022/12/28 04:38:49;;;;;;;12.00;6.87;;;;;;;;;;5022775;28;20483;-78
2022/12/28 04:41:16;;;;;;;12.97;7.60;;;;;;;;;;5025865;28;20472;-78
2022/12/28 04:43:43;;;;;;;12.13;7.80;;;;;;;;;;5026063;28;20469;-78
2022/12/28 04:46:11;;;;;;;12.00;8.50;;;;;;;;;;5024685;28;20453;-78
2022/12/28 04:48:37;;;;;;;16.73;8.97;;;;;;;;;;5027765;28;21049;-78
2022/12/28 04:51:06;;;;;;;9.80;8.80;;;;;;;;;;5025884;28;20432;-78
2022/12/28 04:53:35;;;;;;;11.77;7.63;;;;;;;;;;5020009;28;20450;-78
2022/12/28 04:56:02;;;;;;;12.93;8.60;;;;;;;;;;5027981;28;20471;-78
2022/12/28 04:58:29;;;;;;;11.90;8.87;;;;;;;;;;5026787;28;20491;-78
2022/12/28 05:01:01;;;;;;;14.60;8.37;;;;;;;;;;5022411;28;20453;-79
2022/12/28 05:03:27;;;;;;;13.87;8.60;;;;;;;;;;5024041;28;20452;-78
2022/12/28 05:05:53;;;;;;;10.10;7.93;;;;;;;;;;5024936;28;20461;-78
2022/12/28 05:08:20;;;;;;;11.90;7.70;;;;;;;;;;5027081;28;20468;-78
2022/12/28 05:10:46;;;;;;;14.13;9.33;;;;;;;;;;5029529;28;20454;-78
2022/12/28 05:13:13;;;;;;;12.33;9.00;;;;;;;;;;5026596;28;20446;-78
2022/12/28 05:15:39;;;;;;;10.60;8.60;;;;;;;;;;5024277;28;20468;-78
2022/12/28 05:18:07;;;;;;;10.40;9.07;;;;;;;;;;5027228;28;20483;-78
2022/12/28 05:20:33;;;;;;;10.90;9.20;;;;;;;;;;5025281;28;20477;-78
2022/12/28 05:23:00;;;;;;;10.93;8.70;;;;;;;;;;5022681;28;20461;-78
2022/12/28 05:25:26;;;;;;;12.53;8.80;;;;;;;;;;5023871;28;20560;-78
2022/12/28 05:27:54;;;;;;;9.73;8.60;;;;;;;;;;5025888;28;21008;-78
2022/12/28 05:30:20;;;;;;;8.50;7.60;;;;;;;;;;5026412;28;20511;-78
2022/12/28 05:32:47;;;;;;;12.17;9.33;;;;;;;;;;5025323;28;20450;-78
2022/12/28 05:35:15;;;;;;;8.53;7.60;;;;;;;;;;5028142;28;20470;-78
2022/12/28 05:37:41;;;;;;;11.17;8.43;;;;;;;;;;5027296;28;20464;-78
2022/12/28 05:40:08;;;;;;;11.40;8.77;;;;;;;;;;5020952;28;20477;-78
2022/12/28 05:42:35;;;;;;;10.23;7.27;;;;;;;;;;5023935;28;20449;-78
2022/12/28 05:45:01;;;;;;;11.77;8.73;;;;;;;;;;5020521;28;20482;-78
2022/12/28 05:47:29;;;;;;;8.93;8.03;;;;;;;;;;5024269;28;20472;-78
2022/12/28 05:49:55;;;;;;;12.00;8.17;;;;;;;;;;5028981;28;20481;-78
2022/12/28 05:52:23;;;;;;;12.00;7.37;;;;;;;;;;5026819;28;20457;-78
2022/12/28 05:54:49;;;;;;;12.43;9.10;;;;;;;;;;5024271;28;20469;-78
2022/12/28 05:57:15;;;;;;;8.80;7.90;;;;;;;;;;5023364;28;20462;-78
2022/12/28 05:59:42;;;;;;;9.77;8.23;;;;;;;;;;5019976;28;20470;-78
2022/12/28 06:02:10;;;;;;;11.67;8.90;;;;;;;;;;5027660;28;20453;-78
2022/12/28 06:04:36;;;;;;;14.13;8.87;;;;;;;;;;5025393;28;21034;-78
2022/12/28 06:07:02;;;;;;;11.60;8.23;;;;;;;;;;5024882;28;20945;-78
2022/12/28 06:09:31;;;;;;;9.53;8.00;;;;;;;;;;5020686;28;20481;-78
2022/12/28 06:11:57;;;;;;;11.23;7.83;;;;;;;;;;5022915;28;20841;-78
2022/12/28 06:14:23;;;;;;;10.43;8.93;;;;;;;;;;5026701;28;20465;-78
2022/12/28 06:16:50;;;;;;;10.10;8.63;;;;;;;;;;5020049;28;20463;-78
2022/12/28 06:19:17;;;;;;;10.83;8.13;;;;;;;;;;5025752;28;20994;-78
2022/12/28 06:21:43;;;;;;;9.33;8.33;;;;;;;;;;5028692;28;20471;-78
2022/12/28 06:24:12;;;;;;;10.77;9.10;;;;;;;;;;5024123;28;21021;-78
2022/12/28 06:26:40;;;;;;;10.17;9.00;;;;;;;;;;5021508;28;20970;-78
2022/12/28 06:29:07;;;;;;;10.20;8.83;;;;;;;;;;5023787;28;20473;-78
2022/12/28 06:31:34;;;;;;;10.00;9.03;;;;;;;;;;5023656;28;20794;-78
2022/12/28 06:34:01;;;;;;;10.60;8.50;;;;;;;;;;5023440;28;20830;-78
2022/12/28 06:36:29;;;;;;;12.20;8.70;;;;;;;;;;5029268;28;20460;-78
2022/12/28 06:38:57;;;;;;;10.87;9.70;;;;;;;;;;5023551;28;20476;-78
2022/12/28 06:41:24;;;;;;;9.93;8.80;;;;;;;;;;5022431;28;20868;-78
2022/12/28 06:43:52;;;;;;;10.47;9.37;;;;;;;;;;5031456;28;20490;-78
2022/12/28 06:46:20;;;;;;;10.90;9.50;;;;;;;;;;5030504;28;20491;-78
2022/12/28 06:48:46;;;;;;;11.97;8.27;;;;;;;;;;5024129;28;20477;-78
2022/12/28 06:51:15;;;;;;;11.57;9.47;;;;;;;;;;5028521;28;20470;-78
2022/12/28 06:53:42;;;;;;;11.23;10.07;;;;;;;;;;5022694;28;20800;-78
2022/12/28 06:56:11;;;;;;;11.63;9.47;;;;;;;;;;5028728;28;20446;-78
2022/12/28 06:58:39;;;;;;;12.20;9.17;;;;;;;;;;5021429;28;20890;-78
2022/12/28 07:01:07;;;;;;;12.13;9.80;;;;;;;;;;5025808;28;20963;-78
2022/12/28 07:03:34;;;;;;;10.40;9.23;;;;;;;;;;5024710;28;20460;-78
2022/12/28 07:06:01;;;;;;;10.40;9.30;;;;;;;;;;5012197;28;20480;-78
2022/12/28 07:08:27;;;;;;;10.83;9.57;;;;;;;;;;5019863;28;20482;-78
2022/12/28 07:10:54;;;;;;;11.53;10.47;;;;;;;;;;5025783;28;20476;-78
2022/12/28 07:13:20;;;;;;;11.63;9.30;;;;;;;;;;5030138;28;20463;-78
2022/12/28 07:15:46;;;;;;;9.70;8.50;;;;;;;;;;5023840;28;20483;-78
2022/12/28 07:18:14;;;;;;;11.57;10.13;;;;;;;;;;5025714;28;20850;-78
2022/12/28 07:20:40;;;;;;;10.33;8.30;;;;;;;;;;5027105;28;21008;-78
2022/12/28 07:23:07;;;;;;;8.70;7.23;;;;;;;;;;5024693;28;20448;-78
2022/12/28 07:25:35;;;;;;;11.60;8.70;;;;;;;;;;5022699;28;20481;-78
2022/12/28 07:28:01;;;;;;;9.63;8.63;;;;;;;;;;5026036;28;20472;-78
2022/12/28 07:30:29;;;;;;;9.43;8.43;;;;;;;;;;5023012;28;20465;-78
2022/12/28 07:32:55;;;;;;;8.30;7.43;;;;;;;;;;5019872;28;20465;-78
2022/12/28 07:35:23;;;;;;;9.80;7.80;;;;;;;;;;5018877;28;20492;-78
2022/12/28 07:37:49;;;;;;;9.27;7.83;;;;;;;;;;5026188;28;20568;-78
2022/12/28 07:40:16;;;;;;;7.90;7.10;;;;;;;;;;5022589;28;20830;-78
2022/12/28 07:42:42;;;;;;;11.00;8.03;;;;;;;;;;5027006;28;20944;-78
2022/12/28 07:45:11;;;;;;;9.80;8.23;;;;;;;;;;5026185;28;20998;-78
2022/12/28 07:47:37;;;;;;;9.80;8.77;;;;;;;;;;5024716;28;20491;-78
2022/12/28 07:50:04;;;;;;;10.67;8.73;;;;;;;;;;5025217;28;20480;-78
2022/12/28 07:52:32;;;;;;;11.00;7.53;;;;;;;;;;5027371;28;20441;-78
2022/12/28 07:54:58;;;;;;;10.67;8.33;;;;;;;;;;5020633;28;20468;-78
2022/12/28 07:57:25;;;;;;;11.43;9.63;;;;;;;;;;5017736;28;20495;-78
2022/12/28 07:59:51;;;;;;;8.80;8.00;;;;;;;;;;5021409;28;20484;-78
2022/12/28 08:02:18;;;;;;;11.60;9.77;;;;;;;;;;5024126;28;20465;-78
2022/12/28 08:04:44;;;;;;;10.43;8.83;;;;;;;;;;5023301;28;20480;-78
2022/12/28 08:07:11;;;;;;;22.90;14.13;;;;;;;;;;5030188;28;20464;-80
2022/12/28 08:09:38;;;;;;;14.67;10.93;;;;;;;;;;5028575;28;20501;-79
2022/12/28 08:12:05;;;;;;;48.87;32.10;;;;;;;;;;5032121;28;20460;-80
2022/12/28 08:14:32;;;;;;;10.83;8.90;;;;;;;;;;5029320;28;20452;-79
2022/12/28 08:16:59;;;;;;;13.30;10.80;;;;;;;;;;5036799;28;20452;-79
2022/12/28 08:19:26;;;;;;;10.53;8.60;;;;;;;;;;5036521;28;20500;-80
2022/12/28 08:21:52;;;;;;;13.50;10.90;;;;;;;;;;5033826;28;20472;-79
2022/12/28 08:24:19;;;;;;;9.93;8.93;;;;;;;;;;5034290;28;20455;-79
2022/12/28 08:26:48;;;;;;;8.63;7.77;;;;;;;;;;5029878;28;20484;-80
2022/12/28 08:29:16;;;;;;;10.40;9.27;;;;;;;;;;5035103;28;20453;-79
2022/12/28 08:31:43;;;;;;;9.13;8.00;;;;;;;;;;5034235;28;20463;-79
2022/12/28 08:34:11;;;;;;;10.70;8.37;;;;;;;;;;5031820;28;20461;-79
2022/12/28 08:36:37;;;;;;;9.97;8.93;;;;;;;;;;5044516;28;20550;-80
2022/12/28 08:39:04;;;;;;;10.00;9.07;;;;;;;;;;5037878;28;20472;-79
2022/12/28 08:41:31;;;;;;;10.30;7.80;;;;;;;;;;5034089;28;21000;-79
2022/12/28 08:43:58;;;;;;;11.30;9.30;;;;;;;;;;5036598;28;20456;-79
2022/12/28 08:46:26;;;;;;;10.30;9.20;;;;;;;;;;5034281;28;20479;-80
2022/12/28 08:48:53;;;;;;;9.63;8.63;;;;;;;;;;5037878;28;20472;-79
2022/12/28 08:51:21;;;;;;;11.17;9.63;;;;;;;;;;5034675;28;20476;-80
2022/12/28 08:53:48;;;;;;;10.43;9.33;;;;;;;;;;5035398;28;20456;-79
2022/12/28 08:56:15;;;;;;;13.70;12.30;;;;;;;;;;5035256;28;20471;-80
2022/12/28 08:58:42;;;;;;;10.43;8.60;;;;;;;;;;5038042;28;20483;-79
2022/12/28 09:01:11;;;;;;;10.00;8.20;;;;;;;;;;5036034;28;21005;-79
2022/12/28 09:03:37;;;;;;;10.80;9.67;;;;;;;;;;5031730;28;20457;-79
2022/12/28 09:06:05;;;;;;;12.57;11.33;;;;;;;;;;5038385;28;20506;-79
2022/12/28 09:08:31;;;;;;;8.63;7.83;;;;;;;;;;5038930;28;20461;-79
2022/12/28 09:10:59;;;;;;;9.90;8.90;;;;;;;;;;5033283;28;20484;-79
2022/12/28 09:13:25;;;;;;;10.20;8.13;;;;;;;;;;5036405;28;20448;-79
2022/12/28 09:15:56;;;;;;;10.67;8.63;;;;;;;;;;5035492;28;20469;-79
2022/12/28 09:18:24;;;;;;;7.87;7.07;;;;;;;;;;5032348;28;20465;-79
2022/12/28 09:20:50;;;;;;;7.40;6.70;;;;;;;;;;5033633;28;20472;-79
2022/12/28 09:23:17;;;;;;;8.53;7.00;;;;;;;;;;5037194;28;20822;-79
2022/12/28 09:25:43;;;;;;;6.83;6.20;;;;;;;;;;5036858;28;21022;-79
2022/12/28 09:28:09;;;;;;;8.10;7.17;;;;;;;;;;5030370;28;20476;-79
2022/12/28 09:30:37;;;;;;;8.47;7.33;;;;;;;;;;5032685;28;20475;-79
2022/12/28 09:35:48;;;;;;;14.27;12.77;;;;;;;;;;5034347;28;21009;-79
2022/12/28 09:38:15;;;;;;;6.90;6.30;;;;;;;;;;5036791;28;20469;-80
2022/12/28 09:40:41;;;;;;;7.07;6.00;;;;;;;;;;5034616;28;20474;-79
2022/12/28 09:43:09;;;;;;;7.50;6.70;;;;;;;;;;5031607;28;20464;-79
2022/12/28 09:45:36;;;;;;;10.73;7.90;;;;;;;;;;5034596;28;20543;-79
2022/12/28 09:48:04;;;;;;;7.33;6.03;;;;;;;;;;5034262;28;20472;-79
2022/12/28 09:50:31;;;;;;;7.37;5.67;;;;;;;;;;5036197;28;20480;-79
2022/12/28 09:53:03;;;;;;;6.93;6.03;;;;;;;;;;5036134;28;20477;-79
2022/12/28 09:55:31;;;;;;;7.23;6.53;;;;;;;;;;5033405;28;20466;-79
2022/12/28 09:57:58;;;;;;;53.67;31.83;;;;;;;;;;5033653;28;20464;-79
2022/12/28 10:00:27;;;;;;;7.50;6.90;;;;;;;;;;5036719;28;20465;-79
2022/12/28 10:02:56;;;;;;;8.53;6.97;;;;;;;;;;5035993;28;20472;-79
2022/12/28 10:05:22;;;;;;;8.10;6.90;;;;;;;;;;5038968;28;20560;-81
2022/12/28 10:07:49;;;;;;;6.93;6.33;;;;;;;;;;5034252;28;20498;-82
2022/12/28 10:10:18;;;;;;;8.80;8.00;;;;;;;;;;5037620;28;20468;-81
2022/12/28 10:12:45;;;;;;;13.33;12.03;;;;;;;;;;5037039;28;20458;-82
2022/12/28 10:15:12;;;;;;;7.20;6.50;;;;;;;;;;5042506;28;20461;-81
2022/12/28 10:17:38;;;;;;;8.53;7.20;;;;;;;;;;5037227;28;20473;-81
2022/12/28 10:20:07;;;;;;;45.40;38.60;;;;;;;;;;5035981;28;20487;-81
2022/12/28 10:22:38;;;;;;;10.83;9.83;;;;;;;;;;5038809;28;20448;-82
2022/12/28 10:25:12;;;;;;;8.67;6.33;;;;;;;;;;5035650;28;20480;-81
2022/12/28 10:27:40;;;;;;;12.57;7.63;;;;;;;;;;5037060;28;20490;-82
2022/12/28 10:30:15;;;;;;;9.77;8.87;;;;;;;;;;5035405;28;20484;-81
2022/12/28 10:32:48;;;;;;;7.17;6.40;;;;;;;;;;5032589;28;20464;-81
2022/12/28 10:35:21;;;;;;;6.87;6.17;;;;;;;;;;5031925;28;20470;-81
2022/12/28 10:37:48;;;;;;;6.63;6.03;;;;;;;;;;5034482;28;20523;-81
2022/12/28 10:40:25;;;;;;;7.43;6.73;;;;;;;;;;5036757;28;20481;-81
2022/12/28 10:42:54;;;;;;;6.00;5.33;;;;;;;;;;5036967;28;20525;-82
2022/12/28 10:45:22;;;;;;;6.50;5.10;;;;;;;;;;5036542;28;20507;-82
2022/12/28 10:47:51;;;;;;;6.70;6.00;;;;;;;;;;5032082;28;20565;-82
2022/12/28 10:50:36;;;;;;;6.20;5.60;;;;;;;;;;5036315;28;20491;-81
2022/12/28 10:53:02;;;;;;;6.97;5.70;;;;;;;;;;5034889;28;20487;-82
2022/12/28 10:55:29;;;;;;;9.00;7.30;;;;;;;;;;5039779;28;20523;-82
2022/12/28 10:58:14;;;;;;;7.77;5.77;;;;;;;;;;5033384;28;20481;-82
2022/12/28 11:00:40;;;;;;;7.73;6.90;;;;;;;;;;5038226;28;20483;-81
2022/12/28 11:03:16;;;;;;;7.70;6.83;;;;;;;;;;5038894;28;20452;-81
2022/12/28 11:05:42;;;;;;;7.37;6.67;;;;;;;;;;5036816;28;20481;-82
2022/12/28 11:08:12;;;;;;;6.70;6.10;;;;;;;;;;5033455;28;20872;-81
2022/12/28 11:10:39;;;;;;;8.33;7.53;;;;;;;;;;5033136;28;20497;-81
2022/12/28 11:13:09;;;;;;;7.90;7.13;;;;;;;;;;5030358;28;20441;-81
2022/12/28 11:15:35;;;;;;;6.87;6.00;;;;;;;;;;5037013;28;20853;-82
2022/12/28 11:18:12;;;;;;;8.30;7.50;;;;;;;;;;5036259;28;20473;-82
2022/12/28 11:20:39;;;;;;;7.73;7.03;;;;;;;;;;5034284;28;20481;-81
2022/12/28 11:23:06;;;;;;;11.77;8.73;;;;;;;;;;5037391;28;20457;-81
2022/12/28 11:25:34;;;;;;;12.57;9.87;;;;;;;;;;5036773;28;20855;-81
2022/12/28 11:28:01;;;;;;;38.27;22.30;;;;;;;;;;5038125;28;20473;-81
2022/12/28 11:30:30;;;;;;;11.87;10.33;;;;;;;;;;5039022;28;20549;-81
2022/12/28 11:32:58;;;;;;;10.97;8.63;;;;;;;;;;5036181;28;21002;-81
2022/12/28 11:35:26;;;;;;;12.50;11.20;;;;;;;;;;5033138;28;20488;-81
2022/12/28 11:37:53;;;;;;;10.17;8.80;;;;;;;;;;5035425;28;20496;-81
2022/12/28 11:40:44;;;;;;;10.27;7.50;;;;;;;;;;5036763;28;20551;-81
2022/12/28 11:43:34;;;;;;;8.20;7.30;;;;;;;;;;5036004;28;20456;-81
2022/12/28 11:46:02;;;;;;;8.50;6.70;;;;;;;;;;5037150;28;20473;-81
2022/12/28 11:48:38;;;;;;;8.37;7.60;;;;;;;;;;5030583;28;20493;-81
2022/12/28 11:51:05;;;;;;;7.73;7.07;;;;;;;;;;5036519;28;20981;-82
2022/12/28 11:53:52;;;;;;;5.60;5.20;;;;;;;;;;5040147;28;20459;-81
2022/12/28 11:56:24;;;;;;;4.47;4.07;;;;;;;;;;5032845;28;20480;-81
2022/12/28 11:59:04;;;;;;;5.03;4.53;;;;;;;;;;5035162;28;20524;-82
2022/12/28 12:01:48;;;;;;;5.60;5.10;;;;;;;;;;5036613;28;20469;-81
2022/12/28 12:04:39;;;;;;;4.30;3.90;;;;;;;;;;5037484;28;20484;-82
2022/12/28 12:07:16;;;;;;;4.50;4.10;;;;;;;;;;5042043;28;20511;-81
2022/12/28 12:09:43;;;;;;;4.87;4.20;;;;;;;;;;5044249;28;20915;-81
2022/12/28 12:12:28;;;;;;;4.30;4.00;;;;;;;;;;5035310;28;20465;-81
2022/12/28 12:14:56;;;;;;;3.93;3.63;;;;;;;;;;5041794;28;20468;-81
2022/12/28 12:17:25;;;;;;;4.57;4.27;;;;;;;;;;5034758;28;20437;-82
2022/12/28 12:19:53;;;;;;;4.53;4.13;;;;;;;;;;5036565;28;20484;-82
2022/12/28 12:22:24;;;;;;;5.60;5.20;;;;;;;;;;5038434;28;20459;-81
2022/12/28 12:24:54;;;;;;;4.80;4.17;;;;;;;;;;5030599;28;20473;-82
2022/12/28 12:27:26;;;;;;;5.13;4.73;;;;;;;;;;5040960;28;20889;-81
2022/12/28 12:29:59;;;;;;;5.00;4.60;;;;;;;;;;5039627;28;20993;-81
2022/12/28 12:32:26;;;;;;;6.73;6.10;;;;;;;;;;5039190;28;20540;-81
2022/12/28 12:34:55;;;;;;;5.73;5.23;;;;;;;;;;5040444;28;20480;-81
2022/12/28 12:37:31;;;;;;;5.00;4.50;;;;;;;;;;5044475;28;20832;-81
2022/12/28 12:40:16;;;;;;;6.27;5.60;;;;;;;;;;5029187;28;20483;-81
2022/12/28 12:42:49;;;;;;;5.93;5.43;;;;;;;;;;5019413;28;20464;-81
2022/12/28 12:45:19;;;;;;;6.00;5.40;;;;;;;;;;5016283;28;20482;-81
2022/12/28 12:47:53;;;;;;;5.40;5.00;;;;;;;;;;5019287;28;20486;-81
2022/12/28 12:50:31;;;;;;;5.07;4.60;;;;;;;;;;5015253;28;20557;-81
2022/12/28 12:53:04;;;;;;;4.93;4.53;;;;;;;;;;5018597;28;20456;-81
2022/12/28 12:55:37;;;;;;;5.07;4.10;;;;;;;;;;5014943;28;20474;-81
2022/12/28 12:58:07;;;;;;;15.10;11.70;;;;;;;;;;5020428;28;20478;-81
2022/12/28 13:00:40;;;;;;;7.07;4.97;;;;;;;;;;5017075;28;20478;-81
2022/12/28 13:03:18;;;;;;;3.97;3.67;;;;;;;;;;5017498;28;20529;-81
2022/12/28 13:05:48;;;;;;;4.80;4.40;;;;;;;;;;5034827;28;20539;-81
2022/12/28 13:08:19;;;;;;;4.30;4.00;;;;;;;;;;5020567;28;20496;-81
2022/12/28 13:10:45;;;;;;;16.37;14.77;;;;;;;;;;5022238;28;20466;-81
2022/12/28 13:13:18;;;;;;;4.20;3.80;;;;;;;;;;5021896;28;20462;-81
2022/12/28 13:15:44;;;;;;;4.13;3.73;;;;;;;;;;5012846;28;20486;-81
2022/12/28 13:18:16;;;;;;;4.47;4.17;;;;;;;;;;5019192;28;20478;-81
2022/12/28 13:20:51;;;;;;;4.97;3.00;;;;;;;;;;5019209;28;20492;-81
2022/12/28 13:23:20;;;;;;;6.67;4.77;;;;;;;;;;5017118;28;20463;-81
2022/12/28 13:25:47;;;;;;;13.60;11.20;;;;;;;;;;5018167;28;20478;-81
2022/12/28 13:28:18;;;;;;;4.23;3.87;;;;;;;;;;5020071;28;20486;-81
2022/12/28 13:30:54;;;;;;;8.87;7.97;;;;;;;;;;5022746;28;20473;-81
2022/12/28 13:33:21;;;;;;;10.40;7.23;;;;;;;;;;5016896;28;20999;-81
2022/12/28 13:35:47;;;;;;;5.63;4.63;;;;;;;;;;5014506;28;20474;-81
2022/12/28 13:38:14;;;;;;;6.57;5.57;;;;;;;;;;5018071;28;20484;-82
2022/12/28 13:40:49;;;;;;;6.50;5.20;;;;;;;;;;5016458;28;20537;-81
2022/12/28 13:43:34;;;;;;;11.53;8.67;;;;;;;;;;5015999;28;20449;-81
2022/12/28 13:46:06;;;;;;;6.20;5.60;;;;;;;;;;5018398;28;21004;-81
2022/12/28 13:48:34;;;;;;;9.73;5.20;;;;;;;;;;5023186;28;20488;-81
2022/12/28 13:51:00;;;;;;;12.83;11.50;;;;;;;;;;5019893;28;20474;-81
2022/12/28 13:53:28;;;;;;;34.07;20.73;;;;;;;;;;5013003;28;20463;-81
2022/12/28 13:55:57;;;;;;;7.40;5.17;;;;;;;;;;5017677;28;20475;-81
2022/12/28 13:58:25;;;;;;;6.30;5.80;;;;;;;;;;5013475;28;20473;-81
2022/12/28 14:00:53;;;;;;;6.50;5.10;;;;;;;;;;5018988;28;20479;-82
2022/12/28 14:03:20;;;;;;;8.90;8.10;;;;;;;;;;5018982;28;20446;-81
2022/12/28 14:05:49;;;;;;;8.10;6.70;;;;;;;;;;5021315;28;20492;-81
2022/12/28 14:08:16;;;;;;;11.27;10.27;;;;;;;;;;5015061;28;20494;-81
2022/12/28 14:10:46;;;;;;;5.63;5.13;;;;;;;;;;5020386;28;20482;-81
2022/12/28 14:13:14;;;;;;;20.80;17.70;;;;;;;;;;5016092;28;20465;-81
2022/12/28 14:15:41;;;;;;;7.17;6.57;;;;;;;;;;5017496;28;20482;-82
2022/12/28 14:18:09;;;;;;;6.60;5.93;;;;;;;;;;5017546;28;20521;-82
2022/12/28 14:20:45;;;;;;;8.10;7.40;;;;;;;;;;5018838;28;20569;-81
2022/12/28 14:23:22;;;;;;;5.77;5.23;;;;;;;;;;5017535;28;20453;-81
2022/12/28 14:25:48;;;;;;;6.20;5.57;;;;;;;;;;5017369;28;20523;-82
2022/12/28 14:28:18;;;;;;;5.20;4.70;;;;;;;;;;5020828;28;20478;-81
2022/12/28 14:30:50;;;;;;;8.93;8.00;;;;;;;;;;5017685;28;20473;-81
2022/12/28 14:33:19;;;;;;;6.20;5.20;;;;;;;;;;5015793;28;20451;-82
2022/12/28 14:35:47;;;;;;;4.40;4.00;;;;;;;;;;5020513;28;20554;-81
2022/12/28 14:38:16;;;;;;;4.00;3.53;;;;;;;;;;5016915;28;20481;-81
2022/12/28 14:40:43;;;;;;;4.47;4.07;;;;;;;;;;5011658;28;20474;-81
2022/12/28 14:43:10;;;;;;;4.53;4.13;;;;;;;;;;5020242;28;20469;-81
2022/12/28 14:45:41;;;;;;;3.80;3.50;;;;;;;;;;5017496;28;20478;-81
2022/12/28 14:48:21;;;;;;;3.43;3.20;;;;;;;;;;5010448;28;20513;-81
2022/12/28 14:50:55;;;;;;;4.40;4.00;;;;;;;;;;5016565;28;20481;-81
2022/12/28 14:53:22;;;;;;;4.27;3.87;;;;;;;;;;5018321;28;20485;-81
2022/12/28 14:55:56;;;;;;;4.37;3.97;;;;;;;;;;5021823;28;20461;-82
2022/12/28 14:58:25;;;;;;;4.83;3.60;;;;;;;;;;5019848;28;20861;-82
2022/12/28 15:00:58;;;;;;;4.93;4.30;;;;;;;;;;5023722;28;20474;-82
2022/12/28 15:03:27;;;;;;;4.33;3.93;;;;;;;;;;5020778;28;20458;-82
2022/12/28 15:05:55;;;;;;;5.47;4.90;;;;;;;;;;5022504;28;20496;-81
2022/12/28 15:08:22;;;;;;;4.93;4.47;;;;;;;;;;5026449;28;20514;-82
2022/12/28 15:10:50;;;;;;;12.67;11.10;;;;;;;;;;5022961;28;20901;-82
2022/12/28 15:13:17;;;;;;;7.40;4.27;;;;;;;;;;5018429;28;20442;-81
2022/12/28 15:15:43;;;;;;;5.30;4.80;;;;;;;;;;5031533;28;20477;-81
2022/12/28 15:18:11;;;;;;;6.67;5.97;;;;;;;;;;5033815;28;20477;-82